sensor_id;sensor_type;location;lat;lon;timestamp;temperature;humidity
45329;DHT22;72636;48.160;11.428;2024-03-29T00:00:42;4.80;99.90
45329;DHT22;72636;48.160;11.428;2024-03-29T00:03:10;4.90;99.90
45329;DHT22;72636;48.160;11.428;2024-03-29T00:05:36;4.90;99.90
45329;DHT22;72636;48.160;11.428;2024-03-29T00:08:03;4.90;99.90
45329;DHT22;72636;48.160;11.428;2024-03-29T00:10:29;4.90;99.90
45329;DHT22;72636;48.160;11.428;2024-03-29T00:12:55;4.90;99.90
45329;DHT22;72636;48.160;11.428;2024-03-29T00:15:20;4.90;99.90
45329;DHT22;72636;48.160;11.428;2024-03-29T00:17:46;4.90;99.90
45329;DHT22;72636;48.160;11.428;2024-03-29T00:20:12;4.90;99.90
45329;DHT22;72636;48.160;11.428;2024-03-29T00:22:38;4.90;99.90
45329;DHT22;72636;48.160;11.428;2024-03-29T00:25:04;4.90;99.90
45329;DHT22;72636;48.160;11.428;2024-03-29T00:27:30;4.90;99.90
45329;DHT22;72636;48.160;11.428;2024-03-29T00:29:56;4.90;99.90
45329;DHT22;72636;48.160;11.428;2024-03-29T00:32:22;4.90;99.90
45329;DHT22;72636;48.160;11.428;2024-03-29T00:34:50;4.90;99.90
45329;DHT22;72636;48.160;11.428;2024-03-29T00:37:16;4.90;99.90
45329;DHT22;72636;48.160;11.428;2024-03-29T00:39:42;4.90;99.90
45329;DHT22;72636;48.160;11.428;2024-03-29T00:42:08;4.90;99.90
45329;DHT22;72636;48.160;11.428;2024-03-29T00:44:35;4.90;99.90
45329;DHT22;72636;48.160;11.428;2024-03-29T00:47:04;4.90;99.90
45329;DHT22;72636;48.160;11.428;2024-03-29T00:49:29;4.90;99.90
45329;DHT22;72636;48.160;11.428;2024-03-29T00:51:55;4.90;99.90
45329;DHT22;72636;48.160;11.428;2024-03-29T00:54:21;4.90;99.90
45329;DHT22;72636;48.160;11.428;2024-03-29T00:56:52;4.90;99.90
45329;DHT22;72636;48.160;11.428;2024-03-29T00:59:18;4.90;99.90
45329;DHT22;72636;48.160;11.428;2024-03-29T01:01:45;4.90;99.90
45329;DHT22;72636;48.160;11.428;2024-03-29T01:04:11;4.90;99.90
45329;DHT22;72636;48.160;11.428;2024-03-29T01:06:37;4.90;99.90
45329;DHT22;72636;48.160;11.428;2024-03-29T01:09:03;4.90;99.90
45329;DHT22;72636;48.160;11.428;2024-03-29T01:11:30;4.90;99.90
45329;DHT22;72636;48.160;11.428;2024-03-29T01:13:55;4.90;99.90
45329;DHT22;72636;48.160;11.428;2024-03-29T01:16:22;4.90;99.90
45329;DHT22;72636;48.160;11.428;2024-03-29T01:18:47;4.90;99.90
45329;DHT22;72636;48.160;11.428;2024-03-29T01:21:13;4.90;99.90
45329;DHT22;72636;48.160;11.428;2024-03-29T01:23:39;4.80;99.90
45329;DHT22;72636;48.160;11.428;2024-03-29T01:26:06;4.80;99.90
45329;DHT22;72636;48.160;11.428;2024-03-29T01:28:32;4.80;99.90
45329;DHT22;72636;48.160;11.428;2024-03-29T01:30:58;4.80;99.90
45329;DHT22;72636;48.160;11.428;2024-03-29T01:33:26;4.80;99.90
45329;DHT22;72636;48.160;11.428;2024-03-29T01:35:53;4.70;99.90
45329;DHT22;72636;48.160;11.428;2024-03-29T01:38:19;4.70;99.90
45329;DHT22;72636;48.160;11.428;2024-03-29T01:40:45;4.70;99.90
45329;DHT22;72636;48.160;11.428;2024-03-29T01:43:11;4.60;99.90
45329;DHT22;72636;48.160;11.428;2024-03-29T01:45:41;4.60;99.90
45329;DHT22;72636;48.160;11.428;2024-03-29T01:48:09;4.60;99.90
45329;DHT22;72636;48.160;11.428;2024-03-29T01:50:37;4.50;99.90
45329;DHT22;72636;48.160;11.428;2024-03-29T01:53:04;4.50;99.90
45329;DHT22;72636;48.160;11.428;2024-03-29T01:55:31;4.50;99.90
45329;DHT22;72636;48.160;11.428;2024-03-29T01:57:58;4.50;99.90
45329;DHT22;72636;48.160;11.428;2024-03-29T02:00:24;4.40;99.90
45329;DHT22;72636;48.160;11.428;2024-03-29T02:02:51;4.40;99.90
45329;DHT22;72636;48.160;11.428;2024-03-29T02:05:17;4.40;99.90
45329;DHT22;72636;48.160;11.428;2024-03-29T02:07:44;4.40;99.90
45329;DHT22;72636;48.160;11.428;2024-03-29T02:10:11;4.40;99.90
45329;DHT22;72636;48.160;11.428;2024-03-29T02:12:38;4.40;99.90
45329;DHT22;72636;48.160;11.428;2024-03-29T02:15:04;4.30;99.90
45329;DHT22;72636;48.160;11.428;2024-03-29T02:17:31;4.30;99.90
45329;DHT22;72636;48.160;11.428;2024-03-29T02:19:57;4.30;99.90
45329;DHT22;72636;48.160;11.428;2024-03-29T02:22:22;4.30;99.90
45329;DHT22;72636;48.160;11.428;2024-03-29T02:24:49;4.40;99.90
45329;DHT22;72636;48.160;11.428;2024-03-29T02:27:14;4.30;99.90
45329;DHT22;72636;48.160;11.428;2024-03-29T02:29:41;4.30;99.90
45329;DHT22;72636;48.160;11.428;2024-03-29T02:32:06;4.30;99.90
45329;DHT22;72636;48.160;11.428;2024-03-29T02:34:32;4.30;99.90
45329;DHT22;72636;48.160;11.428;2024-03-29T02:36:58;4.30;99.90
45329;DHT22;72636;48.160;11.428;2024-03-29T02:39:24;4.30;99.90
45329;DHT22;72636;48.160;11.428;2024-03-29T02:41:50;4.30;99.90
45329;DHT22;72636;48.160;11.428;2024-03-29T02:44:15;4.30;99.90
45329;DHT22;72636;48.160;11.428;2024-03-29T02:46:41;4.30;99.90
45329;DHT22;72636;48.160;11.428;2024-03-29T02:49:07;4.30;99.90
45329;DHT22;72636;48.160;11.428;2024-03-29T02:51:33;4.30;99.90
45329;DHT22;72636;48.160;11.428;2024-03-29T02:53:58;4.30;99.90
45329;DHT22;72636;48.160;11.428;2024-03-29T02:56:24;4.30;99.90
45329;DHT22;72636;48.160;11.428;2024-03-29T02:58:50;4.30;99.90
45329;DHT22;72636;48.160;11.428;2024-03-29T03:01:15;4.30;99.90
45329;DHT22;72636;48.160;11.428;2024-03-29T03:03:41;4.30;99.90
45329;DHT22;72636;48.160;11.428;2024-03-29T03:06:06;4.30;99.90
45329;DHT22;72636;48.160;11.428;2024-03-29T03:08:32;4.30;99.90
45329;DHT22;72636;48.160;11.428;2024-03-29T03:11:16;4.30;99.90
45329;DHT22;72636;48.160;11.428;2024-03-29T03:13:41;4.20;99.90
45329;DHT22;72636;48.160;11.428;2024-03-29T03:16:07;4.30;99.90
45329;DHT22;72636;48.160;11.428;2024-03-29T03:18:32;4.20;99.90
45329;DHT22;72636;48.160;11.428;2024-03-29T03:20:58;4.20;99.90
45329;DHT22;72636;48.160;11.428;2024-03-29T03:23:24;4.20;99.90
45329;DHT22;72636;48.160;11.428;2024-03-29T03:25:53;4.20;99.90
45329;DHT22;72636;48.160;11.428;2024-03-29T03:28:19;4.10;99.90
45329;DHT22;72636;48.160;11.428;2024-03-29T03:30:44;4.10;99.90
45329;DHT22;72636;48.160;11.428;2024-03-29T03:33:10;4.10;99.90
45329;DHT22;72636;48.160;11.428;2024-03-29T03:35:35;4.10;99.90
45329;DHT22;72636;48.160;11.428;2024-03-29T03:38:01;4.10;99.90
45329;DHT22;72636;48.160;11.428;2024-03-29T03:40:27;4.10;99.90
45329;DHT22;72636;48.160;11.428;2024-03-29T03:42:52;4.10;99.90
45329;DHT22;72636;48.160;11.428;2024-03-29T03:45:18;4.10;99.90
45329;DHT22;72636;48.160;11.428;2024-03-29T03:47:44;4.10;99.90
45329;DHT22;72636;48.160;11.428;2024-03-29T03:50:09;4.10;99.90
45329;DHT22;72636;48.160;11.428;2024-03-29T03:52:35;4.10;99.90
45329;DHT22;72636;48.160;11.428;2024-03-29T03:55:00;4.10;99.90
45329;DHT22;72636;48.160;11.428;2024-03-29T03:57:26;4.10;99.90
45329;DHT22;72636;48.160;11.428;2024-03-29T03:59:52;4.10;99.90
45329;DHT22;72636;48.160;11.428;2024-03-29T04:02:17;4.20;99.90
45329;DHT22;72636;48.160;11.428;2024-03-29T04:04:47;4.20;99.90
45329;DHT22;72636;48.160;11.428;2024-03-29T04:07:13;4.20;99.90
45329;DHT22;72636;48.160;11.428;2024-03-29T04:09:38;4.20;99.90
45329;DHT22;72636;48.160;11.428;2024-03-29T04:12:04;4.20;99.90
45329;DHT22;72636;48.160;11.428;2024-03-29T04:14:30;4.20;99.90
45329;DHT22;72636;48.160;11.428;2024-03-29T04:16:55;4.20;99.90
45329;DHT22;72636;48.160;11.428;2024-03-29T04:19:21;4.20;99.90
45329;DHT22;72636;48.160;11.428;2024-03-29T04:21:46;4.20;99.90
45329;DHT22;72636;48.160;11.428;2024-03-29T04:24:12;4.30;99.90
45329;DHT22;72636;48.160;11.428;2024-03-29T04:26:37;4.30;99.90
45329;DHT22;72636;48.160;11.428;2024-03-29T04:29:04;4.30;99.90
45329;DHT22;72636;48.160;11.428;2024-03-29T04:31:29;4.30;99.90
45329;DHT22;72636;48.160;11.428;2024-03-29T04:33:55;4.30;99.90
45329;DHT22;72636;48.160;11.428;2024-03-29T04:36:20;4.30;99.90
45329;DHT22;72636;48.160;11.428;2024-03-29T04:38:46;4.30;99.90
45329;DHT22;72636;48.160;11.428;2024-03-29T04:41:12;4.30;99.90
45329;DHT22;72636;48.160;11.428;2024-03-29T04:43:39;4.30;99.90
45329;DHT22;72636;48.160;11.428;2024-03-29T04:46:09;4.30;99.90
45329;DHT22;72636;48.160;11.428;2024-03-29T04:48:39;4.30;99.90
45329;DHT22;72636;48.160;11.428;2024-03-29T04:51:05;4.30;99.90
45329;DHT22;72636;48.160;11.428;2024-03-29T04:53:30;4.30;99.90
45329;DHT22;72636;48.160;11.428;2024-03-29T04:55:56;4.30;99.90
45329;DHT22;72636;48.160;11.428;2024-03-29T04:58:22;4.30;99.90
45329;DHT22;72636;48.160;11.428;2024-03-29T05:00:51;4.30;99.90
45329;DHT22;72636;48.160;11.428;2024-03-29T05:03:17;4.30;99.90
45329;DHT22;72636;48.160;11.428;2024-03-29T05:05:42;4.40;99.90
45329;DHT22;72636;48.160;11.428;2024-03-29T05:08:08;4.40;99.90
45329;DHT22;72636;48.160;11.428;2024-03-29T05:10:33;4.40;99.90
45329;DHT22;72636;48.160;11.428;2024-03-29T05:13:00;4.40;99.90
45329;DHT22;72636;48.160;11.428;2024-03-29T05:15:26;4.40;99.90
45329;DHT22;72636;48.160;11.428;2024-03-29T05:17:52;4.40;99.90
45329;DHT22;72636;48.160;11.428;2024-03-29T05:20:18;4.50;99.90
45329;DHT22;72636;48.160;11.428;2024-03-29T05:22:44;4.50;99.90
45329;DHT22;72636;48.160;11.428;2024-03-29T05:25:10;4.60;99.90
45329;DHT22;72636;48.160;11.428;2024-03-29T05:27:35;4.60;99.90
45329;DHT22;72636;48.160;11.428;2024-03-29T05:30:01;4.70;99.90
45329;DHT22;72636;48.160;11.428;2024-03-29T05:32:28;4.70;99.90
45329;DHT22;72636;48.160;11.428;2024-03-29T05:34:54;4.80;99.90
45329;DHT22;72636;48.160;11.428;2024-03-29T05:37:19;4.90;99.90
45329;DHT22;72636;48.160;11.428;2024-03-29T05:39:45;5.00;99.90
45329;DHT22;72636;48.160;11.428;2024-03-29T05:42:12;5.10;99.90
45329;DHT22;72636;48.160;11.428;2024-03-29T05:44:38;5.20;99.90
45329;DHT22;72636;48.160;11.428;2024-03-29T05:47:03;5.30;99.90
45329;DHT22;72636;48.160;11.428;2024-03-29T05:49:32;5.40;99.90
45329;DHT22;72636;48.160;11.428;2024-03-29T05:51:58;5.50;99.90
45329;DHT22;72636;48.160;11.428;2024-03-29T05:54:23;5.60;99.90
45329;DHT22;72636;48.160;11.428;2024-03-29T05:56:50;5.70;99.90
45329;DHT22;72636;48.160;11.428;2024-03-29T05:59:15;5.80;99.90
45329;DHT22;72636;48.160;11.428;2024-03-29T06:01:41;5.80;99.90
45329;DHT22;72636;48.160;11.428;2024-03-29T06:04:07;5.90;99.90
45329;DHT22;72636;48.160;11.428;2024-03-29T06:06:41;6.00;99.90
45329;DHT22;72636;48.160;11.428;2024-03-29T06:09:06;6.10;99.90
45329;DHT22;72636;48.160;11.428;2024-03-29T06:11:32;6.20;99.90
45329;DHT22;72636;48.160;11.428;2024-03-29T06:13:57;6.40;99.90
45329;DHT22;72636;48.160;11.428;2024-03-29T06:16:27;6.50;99.90
45329;DHT22;72636;48.160;11.428;2024-03-29T06:19:12;6.70;99.90
45329;DHT22;72636;48.160;11.428;2024-03-29T06:21:38;6.90;99.90
45329;DHT22;72636;48.160;11.428;2024-03-29T06:24:05;7.10;99.90
45329;DHT22;72636;48.160;11.428;2024-03-29T06:26:31;7.40;99.90
45329;DHT22;72636;48.160;11.428;2024-03-29T06:28:56;7.50;99.90
45329;DHT22;72636;48.160;11.428;2024-03-29T06:31:22;7.70;99.90
45329;DHT22;72636;48.160;11.428;2024-03-29T06:33:47;7.80;99.90
45329;DHT22;72636;48.160;11.428;2024-03-29T06:36:13;7.90;99.90
45329;DHT22;72636;48.160;11.428;2024-03-29T06:38:38;8.00;99.90
45329;DHT22;72636;48.160;11.428;2024-03-29T06:41:04;8.10;99.90
45329;DHT22;72636;48.160;11.428;2024-03-29T06:43:30;8.30;99.90
45329;DHT22;72636;48.160;11.428;2024-03-29T06:45:55;8.50;99.90
45329;DHT22;72636;48.160;11.428;2024-03-29T06:48:21;8.50;99.90
45329;DHT22;72636;48.160;11.428;2024-03-29T06:50:47;8.70;99.90
45329;DHT22;72636;48.160;11.428;2024-03-29T06:53:12;8.90;99.90
45329;DHT22;72636;48.160;11.428;2024-03-29T06:55:38;9.00;99.90
45329;DHT22;72636;48.160;11.428;2024-03-29T06:58:04;9.20;99.90
45329;DHT22;72636;48.160;11.428;2024-03-29T07:00:29;9.30;99.90
45329;DHT22;72636;48.160;11.428;2024-03-29T07:02:55;9.50;99.90
45329;DHT22;72636;48.160;11.428;2024-03-29T07:05:21;9.70;99.90
45329;DHT22;72636;48.160;11.428;2024-03-29T07:07:46;9.80;99.90
45329;DHT22;72636;48.160;11.428;2024-03-29T07:10:12;10.00;99.90
45329;DHT22;72636;48.160;11.428;2024-03-29T07:12:38;10.20;99.90
45329;DHT22;72636;48.160;11.428;2024-03-29T07:15:04;10.40;99.90
45329;DHT22;72636;48.160;11.428;2024-03-29T07:17:30;10.50;99.90
45329;DHT22;72636;48.160;11.428;2024-03-29T07:19:55;10.70;99.90
45329;DHT22;72636;48.160;11.428;2024-03-29T07:22:21;10.80;99.90
45329;DHT22;72636;48.160;11.428;2024-03-29T07:24:46;10.90;99.90
45329;DHT22;72636;48.160;11.428;2024-03-29T07:27:12;11.00;99.90
45329;DHT22;72636;48.160;11.428;2024-03-29T07:29:39;11.10;99.90
45329;DHT22;72636;48.160;11.428;2024-03-29T07:32:07;11.20;99.90
45329;DHT22;72636;48.160;11.428;2024-03-29T07:34:33;11.40;99.90
45329;DHT22;72636;48.160;11.428;2024-03-29T07:36:58;11.60;99.90
45329;DHT22;72636;48.160;11.428;2024-03-29T07:39:24;11.70;99.90
45329;DHT22;72636;48.160;11.428;2024-03-29T07:41:50;11.90;99.90
45329;DHT22;72636;48.160;11.428;2024-03-29T07:44:15;12.10;99.90
45329;DHT22;72636;48.160;11.428;2024-03-29T07:46:41;12.20;99.90
45329;DHT22;72636;48.160;11.428;2024-03-29T07:49:06;12.40;99.90
45329;DHT22;72636;48.160;11.428;2024-03-29T07:51:33;12.60;99.90
45329;DHT22;72636;48.160;11.428;2024-03-29T07:53:58;12.80;99.90
45329;DHT22;72636;48.160;11.428;2024-03-29T07:56:24;12.90;99.90
45329;DHT22;72636;48.160;11.428;2024-03-29T07:58:52;13.10;99.90
45329;DHT22;72636;48.160;11.428;2024-03-29T08:01:19;13.40;99.90
45329;DHT22;72636;48.160;11.428;2024-03-29T08:03:45;13.60;99.90
45329;DHT22;72636;48.160;11.428;2024-03-29T08:06:10;13.80;97.10
45329;DHT22;72636;48.160;11.428;2024-03-29T08:08:36;13.90;96.70
45329;DHT22;72636;48.160;11.428;2024-03-29T08:11:02;14.10;93.10
45329;DHT22;72636;48.160;11.428;2024-03-29T08:13:27;14.20;92.00
45329;DHT22;72636;48.160;11.428;2024-03-29T08:15:59;14.30;92.00
45329;DHT22;72636;48.160;11.428;2024-03-29T08:18:28;14.50;89.60
45329;DHT22;72636;48.160;11.428;2024-03-29T08:20:54;14.60;83.00
45329;DHT22;72636;48.160;11.428;2024-03-29T08:23:24;14.70;85.00
45329;DHT22;72636;48.160;11.428;2024-03-29T08:25:50;14.90;73.90
45329;DHT22;72636;48.160;11.428;2024-03-29T08:28:20;15.00;72.60
45329;DHT22;72636;48.160;11.428;2024-03-29T08:30:45;15.10;75.10
45329;DHT22;72636;48.160;11.428;2024-03-29T08:33:11;15.20;66.00
45329;DHT22;72636;48.160;11.428;2024-03-29T08:35:37;15.40;58.40
45329;DHT22;72636;48.160;11.428;2024-03-29T08:38:03;15.60;60.00
45329;DHT22;72636;48.160;11.428;2024-03-29T08:40:29;15.70;58.20
45329;DHT22;72636;48.160;11.428;2024-03-29T08:42:56;16.00;55.00
45329;DHT22;72636;48.160;11.428;2024-03-29T08:45:22;16.20;52.00
45329;DHT22;72636;48.160;11.428;2024-03-29T08:47:48;16.40;50.70
45329;DHT22;72636;48.160;11.428;2024-03-29T08:50:13;16.50;48.20
45329;DHT22;72636;48.160;11.428;2024-03-29T08:52:39;16.60;48.10
45329;DHT22;72636;48.160;11.428;2024-03-29T08:55:08;16.70;45.70
45329;DHT22;72636;48.160;11.428;2024-03-29T08:57:34;16.80;45.30
45329;DHT22;72636;48.160;11.428;2024-03-29T08:59:59;16.90;47.10
45329;DHT22;72636;48.160;11.428;2024-03-29T09:02:25;16.90;47.80
45329;DHT22;72636;48.160;11.428;2024-03-29T09:04:51;17.00;48.60
45329;DHT22;72636;48.160;11.428;2024-03-29T09:07:17;17.10;49.80
45329;DHT22;72636;48.160;11.428;2024-03-29T09:09:43;17.20;49.00
45329;DHT22;72636;48.160;11.428;2024-03-29T09:12:08;17.30;49.20
45329;DHT22;72636;48.160;11.428;2024-03-29T09:14:34;17.50;47.90
45329;DHT22;72636;48.160;11.428;2024-03-29T09:17:00;17.60;45.10
45329;DHT22;72636;48.160;11.428;2024-03-29T09:19:27;17.70;43.40
45329;DHT22;72636;48.160;11.428;2024-03-29T09:21:53;17.80;42.60
45329;DHT22;72636;48.160;11.428;2024-03-29T09:24:18;18.00;45.90
45329;DHT22;72636;48.160;11.428;2024-03-29T09:26:50;18.10;42.70
45329;DHT22;72636;48.160;11.428;2024-03-29T09:29:16;18.20;39.50
45329;DHT22;72636;48.160;11.428;2024-03-29T09:31:43;18.30;42.10
45329;DHT22;72636;48.160;11.428;2024-03-29T09:34:08;18.40;39.50
45329;DHT22;72636;48.160;11.428;2024-03-29T09:36:34;18.60;37.70
45329;DHT22;72636;48.160;11.428;2024-03-29T09:39:00;18.70;39.40
45329;DHT22;72636;48.160;11.428;2024-03-29T09:41:26;18.70;36.40
45329;DHT22;72636;48.160;11.428;2024-03-29T09:43:53;18.80;38.60
45329;DHT22;72636;48.160;11.428;2024-03-29T09:46:21;19.00;39.60
45329;DHT22;72636;48.160;11.428;2024-03-29T09:48:47;19.10;38.90
45329;DHT22;72636;48.160;11.428;2024-03-29T09:51:13;19.20;36.80
45329;DHT22;72636;48.160;11.428;2024-03-29T09:53:40;19.10;37.40
45329;DHT22;72636;48.160;11.428;2024-03-29T09:56:06;19.10;36.30
45329;DHT22;72636;48.160;11.428;2024-03-29T09:58:32;19.10;37.00
45329;DHT22;72636;48.160;11.428;2024-03-29T10:00:58;19.10;34.90
45329;DHT22;72636;48.160;11.428;2024-03-29T10:03:24;19.10;36.10
45329;DHT22;72636;48.160;11.428;2024-03-29T10:05:56;19.10;35.60
45329;DHT22;72636;48.160;11.428;2024-03-29T10:08:21;19.10;35.20
45329;DHT22;72636;48.160;11.428;2024-03-29T10:10:48;19.00;33.70
45329;DHT22;72636;48.160;11.428;2024-03-29T10:13:14;19.00;34.20
45329;DHT22;72636;48.160;11.428;2024-03-29T10:15:39;19.00;32.90
45329;DHT22;72636;48.160;11.428;2024-03-29T10:18:09;19.00;33.40
45329;DHT22;72636;48.160;11.428;2024-03-29T10:20:34;19.00;31.80
45329;DHT22;72636;48.160;11.428;2024-03-29T10:23:01;19.10;32.50
45329;DHT22;72636;48.160;11.428;2024-03-29T10:25:31;19.10;31.00
45329;DHT22;72636;48.160;11.428;2024-03-29T10:27:57;19.20;32.60
45329;DHT22;72636;48.160;11.428;2024-03-29T10:30:24;19.40;31.20
45329;DHT22;72636;48.160;11.428;2024-03-29T10:32:50;19.60;32.70
45329;DHT22;72636;48.160;11.428;2024-03-29T10:35:15;19.90;31.30
45329;DHT22;72636;48.160;11.428;2024-03-29T10:37:42;20.10;30.00
45329;DHT22;72636;48.160;11.428;2024-03-29T10:40:08;20.40;29.40
45329;DHT22;72636;48.160;11.428;2024-03-29T10:42:37;20.80;28.00
45329;DHT22;72636;48.160;11.428;2024-03-29T10:45:05;21.00;26.70
45329;DHT22;72636;48.160;11.428;2024-03-29T10:47:30;21.10;27.20
45329;DHT22;72636;48.160;11.428;2024-03-29T10:49:57;21.20;27.90
45329;DHT22;72636;48.160;11.428;2024-03-29T10:52:24;21.30;26.40
45329;DHT22;72636;48.160;11.428;2024-03-29T10:54:50;21.40;26.10
45329;DHT22;72636;48.160;11.428;2024-03-29T10:57:26;21.60;25.20
45329;DHT22;72636;48.160;11.428;2024-03-29T11:00:13;21.80;25.10
45329;DHT22;72636;48.160;11.428;2024-03-29T11:05:18;22.20;24.40
45329;DHT22;72636;48.160;11.428;2024-03-29T11:07:44;22.30;24.30
45329;DHT22;72636;48.160;11.428;2024-03-29T11:10:57;22.40;23.60
45329;DHT22;72636;48.160;11.428;2024-03-29T11:15:27;22.60;24.90
45329;DHT22;72636;48.160;11.428;2024-03-29T11:17:54;22.70;23.20
45329;DHT22;72636;48.160;11.428;2024-03-29T11:20:19;22.70;24.00
45329;DHT22;72636;48.160;11.428;2024-03-29T11:22:50;22.60;22.60
45329;DHT22;72636;48.160;11.428;2024-03-29T11:25:15;22.60;23.80
45329;DHT22;72636;48.160;11.428;2024-03-29T11:27:41;22.60;24.70
45329;DHT22;72636;48.160;11.428;2024-03-29T11:30:07;22.60;22.90
45329;DHT22;72636;48.160;11.428;2024-03-29T11:32:35;22.60;23.50
45329;DHT22;72636;48.160;11.428;2024-03-29T11:35:03;22.60;23.70
45329;DHT22;72636;48.160;11.428;2024-03-29T11:37:30;22.80;23.80
45329;DHT22;72636;48.160;11.428;2024-03-29T11:39:55;23.20;24.40
45329;DHT22;72636;48.160;11.428;2024-03-29T11:42:36;24.00;23.40
45329;DHT22;72636;48.160;11.428;2024-03-29T11:45:02;24.70;21.50
45329;DHT22;72636;48.160;11.428;2024-03-29T11:47:28;25.10;19.00
45329;DHT22;72636;48.160;11.428;2024-03-29T11:49:56;25.30;19.40
45329;DHT22;72636;48.160;11.428;2024-03-29T11:52:24;25.70;18.70
45329;DHT22;72636;48.160;11.428;2024-03-29T11:54:51;25.80;17.60
45329;DHT22;72636;48.160;11.428;2024-03-29T11:57:16;26.00;17.70
45329;DHT22;72636;48.160;11.428;2024-03-29T11:59:42;26.40;17.40
45329;DHT22;72636;48.160;11.428;2024-03-29T12:02:08;26.50;18.40
45329;DHT22;72636;48.160;11.428;2024-03-29T12:04:39;26.40;17.20
45329;DHT22;72636;48.160;11.428;2024-03-29T12:07:04;26.30;16.60
45329;DHT22;72636;48.160;11.428;2024-03-29T12:09:30;26.00;17.00
45329;DHT22;72636;48.160;11.428;2024-03-29T12:11:55;25.70;16.60
45329;DHT22;72636;48.160;11.428;2024-03-29T12:14:25;25.80;17.50
45329;DHT22;72636;48.160;11.428;2024-03-29T12:16:52;26.10;18.20
45329;DHT22;72636;48.160;11.428;2024-03-29T12:19:25;26.40;17.00
45329;DHT22;72636;48.160;11.428;2024-03-29T12:21:53;27.00;17.00
45329;DHT22;72636;48.160;11.428;2024-03-29T12:24:19;28.00;16.10
45329;DHT22;72636;48.160;11.428;2024-03-29T12:26:47;28.60;15.10
45329;DHT22;72636;48.160;11.428;2024-03-29T12:29:13;29.60;14.80
45329;DHT22;72636;48.160;11.428;2024-03-29T12:31:39;30.10;12.90
45329;DHT22;72636;48.160;11.428;2024-03-29T12:34:04;30.60;12.60
45329;DHT22;72636;48.160;11.428;2024-03-29T12:36:32;31.30;11.50
45329;DHT22;72636;48.160;11.428;2024-03-29T12:38:59;32.20;10.70
45329;DHT22;72636;48.160;11.428;2024-03-29T12:41:31;33.20;10.40
45329;DHT22;72636;48.160;11.428;2024-03-29T12:43:57;34.10;9.30
45329;DHT22;72636;48.160;11.428;2024-03-29T12:46:22;35.00;8.90
45329;DHT22;72636;48.160;11.428;2024-03-29T12:48:48;35.70;8.00
45329;DHT22;72636;48.160;11.428;2024-03-29T12:51:22;36.20;7.50
45329;DHT22;72636;48.160;11.428;2024-03-29T12:53:47;36.80;6.20
45329;DHT22;72636;48.160;11.428;2024-03-29T12:56:13;36.90;6.30
45329;DHT22;72636;48.160;11.428;2024-03-29T12:58:39;37.00;6.30
45329;DHT22;72636;48.160;11.428;2024-03-29T13:01:04;37.70;5.70
45329;DHT22;72636;48.160;11.428;2024-03-29T13:03:32;38.20;5.70
45329;DHT22;72636;48.160;11.428;2024-03-29T13:05:57;38.50;4.90
45329;DHT22;72636;48.160;11.428;2024-03-29T13:08:23;39.10;4.90
45329;DHT22;72636;48.160;11.428;2024-03-29T13:10:48;39.20;4.00
45329;DHT22;72636;48.160;11.428;2024-03-29T13:13:14;39.60;3.90
45329;DHT22;72636;48.160;11.428;2024-03-29T13:15:40;39.60;3.90
45329;DHT22;72636;48.160;11.428;2024-03-29T13:18:12;40.10;3.30
45329;DHT22;72636;48.160;11.428;2024-03-29T13:20:41;40.50;3.10
45329;DHT22;72636;48.160;11.428;2024-03-29T13:23:08;40.70;3.10
45329;DHT22;72636;48.160;11.428;2024-03-29T13:25:34;40.50;2.70
45329;DHT22;72636;48.160;11.428;2024-03-29T13:27:59;40.00;2.40
45329;DHT22;72636;48.160;11.428;2024-03-29T13:30:25;39.80;2.30
45329;DHT22;72636;48.160;11.428;2024-03-29T13:32:52;39.30;2.80
45329;DHT22;72636;48.160;11.428;2024-03-29T13:35:18;38.50;2.70
45329;DHT22;72636;48.160;11.428;2024-03-29T13:37:50;38.10;2.80
45329;DHT22;72636;48.160;11.428;2024-03-29T13:40:17;37.20;3.30
45329;DHT22;72636;48.160;11.428;2024-03-29T13:42:43;37.00;4.10
45329;DHT22;72636;48.160;11.428;2024-03-29T13:45:09;36.20;4.10
45329;DHT22;72636;48.160;11.428;2024-03-29T13:47:38;35.70;4.70
45329;DHT22;72636;48.160;11.428;2024-03-29T13:50:05;35.60;3.80
45329;DHT22;72636;48.160;11.428;2024-03-29T13:52:31;35.80;4.30
45329;DHT22;72636;48.160;11.428;2024-03-29T13:54:57;35.80;4.30
45329;DHT22;72636;48.160;11.428;2024-03-29T13:57:23;35.40;4.10
45329;DHT22;72636;48.160;11.428;2024-03-29T13:59:48;35.50;4.40
45329;DHT22;72636;48.160;11.428;2024-03-29T14:02:17;35.60;4.20
45329;DHT22;72636;48.160;11.428;2024-03-29T14:04:43;35.20;4.30
45329;DHT22;72636;48.160;11.428;2024-03-29T14:07:10;35.40;4.40
45329;DHT22;72636;48.160;11.428;2024-03-29T14:09:39;35.00;4.10
45329;DHT22;72636;48.160;11.428;2024-03-29T14:12:05;34.50;4.60
45329;DHT22;72636;48.160;11.428;2024-03-29T14:14:31;34.00;4.60
45329;DHT22;72636;48.160;11.428;2024-03-29T14:16:57;33.70;5.10
45329;DHT22;72636;48.160;11.428;2024-03-29T14:19:22;33.20;5.50
45329;DHT22;72636;48.160;11.428;2024-03-29T14:21:48;32.50;5.50
45329;DHT22;72636;48.160;11.428;2024-03-29T14:24:14;32.20;5.60
45329;DHT22;72636;48.160;11.428;2024-03-29T14:26:41;31.70;5.60
45329;DHT22;72636;48.160;11.428;2024-03-29T14:29:06;31.30;6.00
45329;DHT22;72636;48.160;11.428;2024-03-29T14:31:32;30.90;6.30
45329;DHT22;72636;48.160;11.428;2024-03-29T14:33:58;30.50;6.60
45329;DHT22;72636;48.160;11.428;2024-03-29T14:36:23;30.00;7.00
45329;DHT22;72636;48.160;11.428;2024-03-29T14:38:49;29.70;7.10
45329;DHT22;72636;48.160;11.428;2024-03-29T14:41:15;29.20;7.30
45329;DHT22;72636;48.160;11.428;2024-03-29T14:43:41;28.90;7.50
45329;DHT22;72636;48.160;11.428;2024-03-29T14:46:06;28.50;7.30
45329;DHT22;72636;48.160;11.428;2024-03-29T14:48:32;28.20;7.80
45329;DHT22;72636;48.160;11.428;2024-03-29T14:50:58;28.10;8.20
45329;DHT22;72636;48.160;11.428;2024-03-29T14:53:24;27.80;8.00
45329;DHT22;72636;48.160;11.428;2024-03-29T14:55:50;27.50;8.10
45329;DHT22;72636;48.160;11.428;2024-03-29T14:58:15;27.40;8.60
45329;DHT22;72636;48.160;11.428;2024-03-29T15:00:41;27.20;8.20
45329;DHT22;72636;48.160;11.428;2024-03-29T15:03:09;27.30;8.70
45329;DHT22;72636;48.160;11.428;2024-03-29T15:05:34;27.50;8.50
45329;DHT22;72636;48.160;11.428;2024-03-29T15:08:01;27.50;8.50
45329;DHT22;72636;48.160;11.428;2024-03-29T15:10:26;27.50;8.40
45329;DHT22;72636;48.160;11.428;2024-03-29T15:12:52;27.60;8.50
45329;DHT22;72636;48.160;11.428;2024-03-29T15:15:17;27.50;8.20
45329;DHT22;72636;48.160;11.428;2024-03-29T15:17:43;27.40;8.40
45329;DHT22;72636;48.160;11.428;2024-03-29T15:20:09;27.20;8.60
45329;DHT22;72636;48.160;11.428;2024-03-29T15:22:36;27.00;8.80
45329;DHT22;72636;48.160;11.428;2024-03-29T15:25:02;26.70;8.90